Language: 


Des rapports , des résumés tant et plus, au choix de chacun....


Données Historiques de Météogheer
Journalier Rapport pour Mars 6, 2017 Unitée:  Les deux    Impériale   Métrique
Suivant Jour »
Journalier Hebdomadaire Mensuel Annuel Sur mesure
  Max: Min: Moyenne:
Température: 53.8 °F /  12.1 °C 42.4 °F /  5.8 °C 45.7 °F /  7.6 °C
Point de rosée: 44.8 °F /  7.1 °C 37.9 °F /  3.3 °C 41.5 °F /  5.3 °C
Humidité: 98% 63% 86%
Vent: 19mph /  30.6km/h - 6mph /  9.6km/h
Rafales: 25.9mph /  41.7km/h - -
Vent- - West
Pression: 29.8 in /  1010.0 hPa 0 in /  0.0 hPa -
Pluie: 0.1 in /  2.5 mm    
Historical Graphs
 
 
Données tabulaires pour Mars 6, 2017
Heure Température Point de rosée Pression Vent Vent Rafales Humidité Pluie Taux (Horaire) Conditions
00:04 44.2 °F /  6.8 °C 43.5 °F /  6.4 °C 29.4in /  996.2hPa WSW 8.7mph /  14.0km/h 9.8mph /  15.8km/h 98% 0.01in /  0.3mm
00:09 44.2 °F /  6.8 °C 43.9 °F /  6.6 °C 29.4in /  996.2hPa West 8.7mph /  14.0km/h 10.1mph /  16.3km/h 98% 0.01in /  0.3mm
00:14 44.4 °F /  6.9 °C 44.1 °F /  6.7 °C 29.4in /  996.2hPa West 8.7mph /  14.0km/h 11.2mph /  18.0km/h 98% 0.03in /  0.8mm
00:19 44.8 °F /  7.1 °C 44.2 °F /  6.8 °C 29.4in /  996.2hPa WSW 7.8mph /  12.6km/h 11.2mph /  18.0km/h 98% 0.03in /  0.8mm
00:24 45 °F /  7.2 °C 44.2 °F /  6.8 °C 29.4in /  996.8hPa WSW 9.8mph /  15.8km/h 12.5mph /  20.1km/h 98% 0.03in /  0.8mm
00:29 45 °F /  7.2 °C 44.2 °F /  6.8 °C 29.4in /  996.8hPa WSW 8.5mph /  13.7km/h 13mph /  20.9km/h 98% 0.03in /  0.8mm
00:34 45 °F /  7.2 °C 44.2 °F /  6.8 °C 29.4in /  996.8hPa West 10.5mph /  16.9km/h 13.2mph /  21.2km/h 98% 0.01in /  0.3mm
00:39 45.1 °F /  7.3 °C 44.4 °F /  6.9 °C 29.4in /  996.8hPa WSW 11mph /  17.7km/h 14.8mph /  23.8km/h 98% 0.01in /  0.3mm
00:44 45.1 °F /  7.3 °C 44.4 °F /  6.9 °C 29.4in /  996.8hPa West 7.8mph /  12.6km/h 17.4mph /  28.0km/h 98% 0.01in /  0.3mm
00:49 45.1 °F /  7.3 °C 44.2 °F /  6.8 °C 29.4in /  996.8hPa West 19mph /  30.6km/h 19mph /  30.6km/h 97% 0.02in /  0.5mm
00:54 45 °F /  7.2 °C 44.1 °F /  6.7 °C 29.4in /  996.8hPa West 13.2mph /  21.2km/h 19mph /  30.6km/h 97% 0.03in /  0.8mm
00:59 45.1 °F /  7.3 °C 44.2 °F /  6.8 °C 29.4in /  996.8hPa WSW 8.5mph /  13.7km/h 19mph /  30.6km/h 97% 0.03in /  0.8mm
01:04 45 °F /  7.2 °C 44.1 °F /  6.7 °C 29.4in /  996.8hPa WSW 10.7mph /  17.2km/h 13.9mph /  22.4km/h 97% 0.03in /  0.8mm
01:09 45 °F /  7.2 °C 44.1 °F /  6.7 °C 29.4in /  996.8hPa WSW 11.9mph /  19.1km/h 12.8mph /  20.6km/h 97% 0.03in /  0.8mm
01:14 44.8 °F /  7.1 °C 43.9 °F /  6.6 °C 29.4in /  996.8hPa WSW 15.4mph /  24.8km/h 15.4mph /  24.8km/h 97% 0.02in /  0.5mm
01:19 44.8 °F /  7.1 °C 43.9 °F /  6.6 °C 29.4in /  996.8hPa WSW 15.2mph /  24.5km/h 16.1mph /  25.9km/h 97% 0.02in /  0.5mm
01:24 44.4 °F /  6.9 °C 43.7 °F /  6.5 °C 29.4in /  996.8hPa West 18.1mph /  29.1km/h 19.5mph /  31.4km/h 97% 0.03in /  0.8mm
01:29 44.4 °F /  6.9 °C 43.7 °F /  6.5 °C 29.4in /  996.8hPa WSW 13.9mph /  22.4km/h 19.5mph /  31.4km/h 97% 0.03in /  0.8mm
01:34 44.4 °F /  6.9 °C 43.7 °F /  6.5 °C 29.4in /  996.8hPa WSW 13.2mph /  21.2km/h 19.2mph /  30.9km/h 97% 0.03in /  0.8mm
01:39 44.4 °F /  6.9 °C 43.7 °F /  6.5 °C 29.4in /  996.8hPa WSW 15.7mph /  25.3km/h 17.4mph /  28.0km/h 97% 0.03in /  0.8mm
01:44 44.4 °F /  6.9 °C 43.7 °F /  6.5 °C 29.4in /  996.8hPa West 11.9mph /  19.1km/h 24.6mph /  39.6km/h 97% 0.04in /  1.0mm
01:49 44.2 °F /  6.8 °C 43.5 °F /  6.4 °C 29.4in /  996.8hPa West 10.1mph /  16.3km/h 24.6mph /  39.6km/h 97% 0.03in /  0.8mm
01:54 44.2 °F /  6.8 °C 43.5 °F /  6.4 °C 29.4in /  996.2hPa West 10.3mph /  16.6km/h 14.5mph /  23.3km/h 97% 0.03in /  0.8mm
01:59 44.2 °F /  6.8 °C 43.5 °F /  6.4 °C 29.4in /  996.2hPa WSW 11.9mph /  19.1km/h 15.2mph /  24.5km/h 97% 0.03in /  0.8mm
02:04 44.2 °F /  6.8 °C 43.5 °F /  6.4 °C 29.4in /  996.2hPa West 11mph /  17.7km/h 15.4mph /  24.8km/h 97% 0.04in /  1.0mm
02:09 44.2 °F /  6.8 °C 43.5 °F /  6.4 °C 29.4in /  996.8hPa West 13mph /  20.9km/h 15.4mph /  24.8km/h 97% 0.04in /  1.0mm
02:14 44.2 °F /  6.8 °C 43.5 °F /  6.4 °C 29.4in /  996.8hPa WSW 10.1mph /  16.3km/h 16.8mph /  27.0km/h 97% 0.04in /  1.0mm
02:19 44.2 °F /  6.8 °C 43.5 °F /  6.4 °C 29.4in /  996.8hPa WSW 13.2mph /  21.2km/h 16.8mph /  27.0km/h 97% 0.04in /  1.0mm
02:24 44.2 °F /  6.8 °C 43.3 °F /  6.3 °C 29.4in /  996.8hPa West 8.7mph /  14.0km/h 13.6mph /  21.9km/h 97% 0.03in /  0.8mm
02:29 44.2 °F /  6.8 °C 43.3 °F /  6.3 °C 29.4in /  996.8hPa West 8.1mph /  13.0km/h 13.2mph /  21.2km/h 97% 0.03in /  0.8mm
02:35 44.2 °F /  6.8 °C 43.3 °F /  6.3 °C 29.4in /  996.8hPa West 9.8mph /  15.8km/h 13.6mph /  21.9km/h 97% 0.03in /  0.8mm
02:40 44.2 °F /  6.8 °C 43.3 °F /  6.3 °C 29.4in /  996.8hPa West 10.5mph /  16.9km/h 13.6mph /  21.9km/h 97% 0.03in /  0.8mm
02:45 44.2 °F /  6.8 °C 43.3 °F /  6.3 °C 29.4in /  996.8hPa West 7.6mph /  12.2km/h 13.2mph /  21.2km/h 97% 0.01in /  0.3mm
02:50 44.2 °F /  6.8 °C 43.3 °F /  6.3 °C 29.4in /  996.8hPa West 7.4mph /  11.9km/h 15.7mph /  25.3km/h 97% 0.01in /  0.3mm
02:55 44.2 °F /  6.8 °C 43.3 °F /  6.3 °C 29.4in /  996.8hPa West 11.9mph /  19.1km/h 15.7mph /  25.3km/h 97% 0.01in /  0.3mm
03:00 44.2 °F /  6.8 °C 43.3 °F /  6.3 °C 29.4in /  996.8hPa West 7.6mph /  12.2km/h 18.1mph /  29.1km/h 97% 0.01in /  0.3mm
03:06 44.2 °F /  6.8 °C 43.2 °F /  6.2 °C 0in /  0.0hPa WNW 11mph /  17.7km/h 18.1mph /  29.1km/h 96% 0in /  0.0mm
03:11 44.1 °F /  6.7 °C 43 °F /  6.1 °C 29.4in /  996.8hPa West 5.8mph /  9.3km/h 15.2mph /  24.5km/h 96% 0in /  0.0mm
03:16 44.1 °F /  6.7 °C 42.6 °F /  5.9 °C 29.4in /  996.8hPa NW 9.2mph /  14.8km/h 25.9mph /  41.7km/h 95% 0in /  0.0mm
03:21 43.5 °F /  6.4 °C 42.3 °F /  5.7 °C 29.4in /  996.8hPa WNW 13.4mph /  21.6km/h 25.9mph /  41.7km/h 95% 0in /  0.0mm
03:26 43.5 °F /  6.4 °C 42.3 °F /  5.7 °C 29.5in /  997.9hPa WNW 12.5mph /  20.1km/h 13.4mph /  21.6km/h 95% 0in /  0.0mm
03:31 43.5 °F /  6.4 °C 42.1 °F /  5.6 °C 29.5in /  997.9hPa West 10.1mph /  16.3km/h 13.4mph /  21.6km/h 95% 0in /  0.0mm
03:36 43.3 °F /  6.3 °C 42.1 °F /  5.6 °C 29.5in /  997.9hPa West 3.1mph /  5.0km/h 12.5mph /  20.1km/h 95% 0in /  0.0mm
03:41 43.3 °F /  6.3 °C 42.1 °F /  5.6 °C 29.5in /  997.9hPa WSW 6mph /  9.7km/h 12.1mph /  19.5km/h 95% 0.01in /  0.3mm
03:46 43.3 °F /  6.3 °C 42.1 °F /  5.6 °C 29.5in /  997.9hPa WNW 10.3mph /  16.6km/h 15.2mph /  24.5km/h 95% 0.01in /  0.3mm
03:51 43.2 °F /  6.2 °C 41.7 °F /  5.4 °C 29.5in /  997.9hPa WSW 7.8mph /  12.6km/h 15.2mph /  24.5km/h 95% 0.01in /  0.3mm
03:52 43.2 °F /  6.2 °C 41.7 °F /  5.4 °C 29.5in /  997.9hPa WSW 3.8mph /  6.1km/h 15.2mph /  24.5km/h 95% 0.01in /  0.3mm
03:57 43 °F /  6.1 °C 41.5 °F /  5.3 °C 29.5in /  997.9hPa WSW 6mph /  9.7km/h 13mph /  20.9km/h 95% 0.01in /  0.3mm
04:02 43 °F /  6.1 °C 41.5 °F /  5.3 °C 29.5in /  997.9hPa WNW 6.7mph /  10.8km/h 15.2mph /  24.5km/h 95% 0.01in /  0.3mm
04:07 42.8 °F /  6.0 °C 41.7 °F /  5.4 °C 29.5in /  997.9hPa SSW 7.8mph /  12.6km/h 15.2mph /  24.5km/h 96% 0.01in /  0.3mm
04:12 42.8 °F /  6.0 °C 41.7 °F /  5.4 °C 29.5in /  997.9hPa West 11.9mph /  19.1km/h 17.7mph /  28.5km/h 96% 0.01in /  0.3mm
04:17 42.8 °F /  6.0 °C 41.7 °F /  5.4 °C 29.5in /  997.9hPa WSW 8.1mph /  13.0km/h 17.7mph /  28.5km/h 96% 0.01in /  0.3mm
04:22 42.8 °F /  6.0 °C 41.7 °F /  5.4 °C 29.5in /  998.9hPa West 12.5mph /  20.1km/h 14.5mph /  23.3km/h 96% 0.01in /  0.3mm
04:27 42.8 °F /  6.0 °C 41.7 °F /  5.4 °C 29.5in /  998.9hPa ESE 4.7mph /  7.6km/h 14.5mph /  23.3km/h 96% 0.01in /  0.3mm
04:32 42.6 °F /  5.9 °C 41.5 °F /  5.3 °C 29.5in /  998.9hPa WSW 12.1mph /  19.5km/h 14.5mph /  23.3km/h 96% 0.01in /  0.3mm
04:37 42.6 °F /  5.9 °C 41.5 °F /  5.3 °C 29.5in /  998.9hPa WSW 5.4mph /  8.7km/h 12.5mph /  20.1km/h 96% 0.01in /  0.3mm
04:42 42.6 °F /  5.9 °C 41.5 °F /  5.3 °C 29.5in /  998.9hPa West 7.6mph /  12.2km/h 12.1mph /  19.5km/h 96% 0in /  0.0mm
04:47 42.6 °F /  5.9 °C 41.5 °F /  5.3 °C 29.5in /  998.9hPa WSW 6.5mph /  10.5km/h 8.7mph /  14.0km/h 96% 0in /  0.0mm
04:52 42.6 °F /  5.9 °C 41.7 °F /  5.4 °C 29.5in /  998.9hPa West 5.4mph /  8.7km/h 10.3mph /  16.6km/h 97% 0in /  0.0mm
04:57 42.6 °F /  5.9 °C 41.7 °F /  5.4 °C 29.5in /  998.9hPa WSW 9.8mph /  15.8km/h 10.3mph /  16.6km/h 97% 0in /  0.0mm
05:02 42.4 °F /  5.8 °C 41.5 °F /  5.3 °C 29.5in /  998.9hPa WSW 7.2mph /  11.6km/h 9.8mph /  15.8km/h 97% 0in /  0.0mm
05:07 42.4 °F /  5.8 °C 41.5 °F /  5.3 °C 29.5in /  998.9hPa West 3.8mph /  6.1km/h 8.7mph /  14.0km/h 97% 0in /  0.0mm
05:12 42.4 °F /  5.8 °C 41.9 °F /  5.5 °C 29.5in /  998.9hPa WSW 3.8mph /  6.1km/h 8.7mph /  14.0km/h 98% 0in /  0.0mm
05:17 42.4 °F /  5.8 °C 41.9 °F /  5.5 °C 29.5in /  998.9hPa WSW 5.4mph /  8.7km/h 7.8mph /  12.6km/h 98% 0.01in /  0.3mm
05:22 42.4 °F /  5.8 °C 41.9 °F /  5.5 °C 29.5in /  998.9hPa Calm   7.2mph /  11.6km/h 98% 0.01in /  0.3mm
05:27 42.4 °F /  5.8 °C 41.9 °F /  5.5 °C 29.5in /  998.9hPa Calm   7.2mph /  11.6km/h 98% 0.01in /  0.3mm
05:32 42.4 °F /  5.8 °C 41.9 °F /  5.5 °C 29.5in /  998.9hPa WNW 2mph /  3.2km/h 4.3mph /  6.9km/h 98% 0.01in /  0.3mm
05:37 42.4 °F /  5.8 °C 41.9 °F /  5.5 °C 29.5in /  998.9hPa Calm   2.2mph /  3.5km/h 98% 0.01in /  0.3mm
05:42 42.4 °F /  5.8 °C 41.9 °F /  5.5 °C 29.5in /  998.9hPa NW 5.4mph /  8.7km/h 5.4mph /  8.7km/h 98% 0.01in /  0.3mm
05:47 42.4 °F /  5.8 °C 41.9 °F /  5.5 °C 29.5in /  998.9hPa WSW 2.7mph /  4.3km/h 7.6mph /  12.2km/h 98% 0.01in /  0.3mm
05:52 42.6 °F /  5.9 °C 42.1 °F /  5.6 °C 29.5in /  998.9hPa West 5.4mph /  8.7km/h 10.5mph /  16.9km/h 98% 0.01in /  0.3mm
05:57 42.8 °F /  6.0 °C 42.3 °F /  5.7 °C 29.5in /  998.9hPa WSW 4mph /  6.4km/h 10.5mph /  16.9km/h 98% 0.01in /  0.3mm
06:02 42.8 °F /  6.0 °C 42.3 °F /  5.7 °C 29.5in /  998.9hPa West 7.8mph /  12.6km/h 12.1mph /  19.5km/h 98% 0.01in /  0.3mm
06:07 43 °F /  6.1 °C 42.4 °F /  5.8 °C 29.5in /  998.9hPa WSW 10.1mph /  16.3km/h 13.9mph /  22.4km/h 98% 0.01in /  0.3mm
06:12 43.2 °F /  6.2 °C 42.6 °F /  5.9 °C 29.5in /  998.9hPa West 7.8mph /  12.6km/h 13.9mph /  22.4km/h 98% 0.01in /  0.3mm
06:17 43.3 °F /  6.3 °C 42.8 °F /  6.0 °C 29.5in /  998.9hPa West 7.8mph /  12.6km/h 14.1mph /  22.7km/h 98% 0in /  0.0mm
06:22 43.3 °F /  6.3 °C 42.8 °F /  6.0 °C 29.5in /  998.9hPa WNW 10.1mph /  16.3km/h 18.1mph /  29.1km/h 98% 0in /  0.0mm
06:27 43.3 °F /  6.3 °C 42.8 °F /  6.0 °C 29.5in /  998.9hPa WSW 10.7mph /  17.2km/h 18.1mph /  29.1km/h 98% 0in /  0.0mm
06:32 43.3 °F /  6.3 °C 42.4 °F /  5.8 °C 29.5in /  998.9hPa West 10.7mph /  17.2km/h 15.2mph /  24.5km/h 97% 0in /  0.0mm
06:37 43.3 °F /  6.3 °C 42.3 °F /  5.7 °C 29.5in /  998.9hPa West 10.3mph /  16.6km/h 15.2mph /  24.5km/h 96% 0in /  0.0mm
06:42 43.3 °F /  6.3 °C 42.3 °F /  5.7 °C 29.5in /  998.9hPa West 12.5mph /  20.1km/h 15.2mph /  24.5km/h 96% 0in /  0.0mm
06:47 43.3 °F /  6.3 °C 42.1 °F /  5.6 °C 29.5in /  998.9hPa WSW 12.1mph /  19.5km/h 18.1mph /  29.1km/h 95% 0in /  0.0mm
06:52 43.5 °F /  6.4 °C 42.1 °F /  5.6 °C 29.5in /  998.9hPa West 11mph /  17.7km/h 18.1mph /  29.1km/h 95% 0in /  0.0mm
06:57 43.5 °F /  6.4 °C 42.1 °F /  5.6 °C 29.5in /  998.9hPa West 10.3mph /  16.6km/h 12.8mph /  20.6km/h 95% 0in /  0.0mm
07:02 43.5 °F /  6.4 °C 42.1 °F /  5.6 °C 29.5in /  998.9hPa WNW 9.6mph /  15.4km/h 12.5mph /  20.1km/h 95% 0in /  0.0mm
07:07 43.5 °F /  6.4 °C 42.1 °F /  5.6 °C 29.5in /  997.9hPa West 13mph /  20.9km/h 13mph /  20.9km/h 95% 0in /  0.0mm
07:12 43.5 °F /  6.4 °C 41.9 °F /  5.5 °C 29.5in /  997.9hPa West 9.8mph /  15.8km/h 13mph /  20.9km/h 94% 0in /  0.0mm
07:17 43.5 °F /  6.4 °C 41.9 °F /  5.5 °C 29.5in /  997.9hPa WSW 10.3mph /  16.6km/h 13.2mph /  21.2km/h 94% 0in /  0.0mm
07:22 43.5 °F /  6.4 °C 41.9 °F /  5.5 °C 29.5in /  998.9hPa WSW 15.2mph /  24.5km/h 15.4mph /  24.8km/h 94% 0in /  0.0mm
07:27 43.5 °F /  6.4 °C 41.9 °F /  5.5 °C 29.5in /  998.9hPa WSW 13.4mph /  21.6km/h 15.4mph /  24.8km/h 94% 0in /  0.0mm
07:32 43.5 °F /  6.4 °C 41.5 °F /  5.3 °C 29.5in /  998.9hPa West 13mph /  20.9km/h 15.2mph /  24.5km/h 93% 0in /  0.0mm
07:37 43.5 °F /  6.4 °C 41.7 °F /  5.4 °C 29.5in /  998.9hPa WSW 8.1mph /  13.0km/h 13.6mph /  21.9km/h 93% 0in /  0.0mm
07:42 43.5 °F /  6.4 °C 41.5 °F /  5.3 °C 29.5in /  998.9hPa WSW 10.1mph /  16.3km/h 13mph /  20.9km/h 93% 0in /  0.0mm
07:47 43.5 °F /  6.4 °C 41.5 °F /  5.3 °C 29.5in /  998.9hPa West 9.8mph /  15.8km/h 17mph /  27.4km/h 92% 0in /  0.0mm
07:52 43.5 °F /  6.4 °C 41.5 °F /  5.3 °C 29.5in /  998.9hPa West 10.5mph /  16.9km/h 17mph /  27.4km/h 92% 0in /  0.0mm
07:57 43.5 °F /  6.4 °C 41.4 °F /  5.2 °C 29.5in /  998.9hPa WSW 5.8mph /  9.3km/h 12.3mph /  19.8km/h 92% 0in /  0.0mm
08:02 43.5 °F /  6.4 °C 41.4 °F /  5.2 °C 29.5in /  998.9hPa West 8.1mph /  13.0km/h 10.7mph /  17.2km/h 92% 0in /  0.0mm
08:07 43.5 °F /  6.4 °C 41.4 °F /  5.2 °C 29.5in /  998.9hPa West 5.4mph /  8.7km/h 9.8mph /  15.8km/h 92% 0in /  0.0mm
08:12 43.3 °F /  6.3 °C 41.2 °F /  5.1 °C 29.5in /  998.9hPa West 4.7mph /  7.6km/h 9.8mph /  15.8km/h 92% 0in /  0.0mm
08:17 43.3 °F /  6.3 °C 41.2 °F /  5.1 °C 29.5in /  998.9hPa West 6mph /  9.7km/h 8.1mph /  13.0km/h 92% 0in /  0.0mm
08:22 43.3 °F /  6.3 °C 41.2 °F /  5.1 °C 29.5in /  998.9hPa WSW 6mph /  9.7km/h 8.5mph /  13.7km/h 92% 0in /  0.0mm
08:27 43.3 °F /  6.3 °C 41.2 °F /  5.1 °C 29.5in /  998.9hPa WSW 6.3mph /  10.1km/h 8.5mph /  13.7km/h 92% 0in /  0.0mm
08:32 43.5 °F /  6.4 °C 41.7 °F /  5.4 °C 29.5in /  998.9hPa West 5.4mph /  8.7km/h 7.2mph /  11.6km/h 93% 0in /  0.0mm
08:37 43.9 °F /  6.6 °C 41.9 °F /  5.5 °C 29.5in /  998.9hPa WSW 6.5mph /  10.5km/h 8.1mph /  13.0km/h 93% 0in /  0.0mm
08:42 43.5 °F /  6.4 °C 41.5 °F /  5.3 °C 29.5in /  998.9hPa WSW 6mph /  9.7km/h 8.1mph /  13.0km/h 92% 0in /  0.0mm
08:47 44.1 °F /  6.7 °C 41.7 °F /  5.4 °C 29.5in /  998.9hPa WSW 4.3mph /  6.9km/h 7.8mph /  12.6km/h 92% 0in /  0.0mm
08:52 44.4 °F /  6.9 °C 42.3 °F /  5.7 °C 29.5in /  999.9hPa West 6.5mph /  10.5km/h 10.3mph /  16.6km/h 92% 0in /  0.0mm
08:57 44.2 °F /  6.8 °C 42.3 °F /  5.7 °C 29.5in /  999.9hPa West 7.8mph /  12.6km/h 10.3mph /  16.6km/h 92% 0in /  0.0mm
09:02 44.8 °F /  7.1 °C 42.3 °F /  5.7 °C 29.5in /  999.9hPa WSW 6mph /  9.7km/h 9.2mph /  14.8km/h 91% 0in /  0.0mm
09:07 45.1 °F /  7.3 °C 42.6 °F /  5.9 °C 29.5in /  998.9hPa WSW 7.6mph /  12.2km/h 10.5mph /  16.9km/h 91% 0in /  0.0mm
09:12 45.1 °F /  7.3 °C 42.8 °F /  6.0 °C 29.5in /  998.9hPa West 7.6mph /  12.2km/h 10.5mph /  16.9km/h 91% 0in /  0.0mm
09:17 45.3 °F /  7.4 °C 42.6 °F /  5.9 °C 29.5in /  998.9hPa WSW 10.7mph /  17.2km/h 10.7mph /  17.2km/h 90% 0in /  0.0mm
09:22 45.1 °F /  7.3 °C 42.3 °F /  5.7 °C 29.5in /  998.9hPa West 10.3mph /  16.6km/h 10.7mph /  17.2km/h 89% 0in /  0.0mm
09:27 45.1 °F /  7.3 °C 41.9 °F /  5.5 °C 29.5in /  998.9hPa WSW 8.1mph /  13.0km/h 10.3mph /  16.6km/h 88% 0in /  0.0mm
09:32 45.1 °F /  7.3 °C 41.9 °F /  5.5 °C 29.5in /  998.9hPa WSW 5.4mph /  8.7km/h 10.3mph /  16.6km/h 88% 0in /  0.0mm
09:37 45.3 °F /  7.4 °C 42.4 °F /  5.8 °C 29.5in /  998.9hPa WSW 2.9mph /  4.7km/h 8.1mph /  13.0km/h 89% 0in /  0.0mm
09:43 45.7 °F /  7.6 °C 42.4 °F /  5.8 °C 29.5in /  998.9hPa WSW 6.7mph /  10.8km/h 8.1mph /  13.0km/h 89% 0in /  0.0mm
09:48 45.7 °F /  7.6 °C 42.4 °F /  5.8 °C 29.5in /  998.9hPa West 5.4mph /  8.7km/h 8.7mph /  14.0km/h 89% 0in /  0.0mm
09:53 45.9 °F /  7.7 °C 42.6 °F /  5.9 °C 29.5in /  998.9hPa WSW 7.6mph /  12.2km/h 8.7mph /  14.0km/h 89% 0in /  0.0mm
09:58 45.9 °F /  7.7 °C 42.6 °F /  5.9 °C 29.5in /  998.9hPa West 6.9mph /  11.1km/h 8.5mph /  13.7km/h 89% 0in /  0.0mm
10:03 45.9 °F /  7.7 °C 42.4 °F /  5.8 °C 29.5in /  998.9hPa WSW 5.4mph /  8.7km/h 10.1mph /  16.3km/h 88% 0in /  0.0mm
10:08 45.7 °F /  7.6 °C 41.9 °F /  5.5 °C 29.5in /  998.9hPa West 10.3mph /  16.6km/h 10.3mph /  16.6km/h 87% 0in /  0.0mm
10:13 45.7 °F /  7.6 °C 41.9 °F /  5.5 °C 29.5in /  998.9hPa West 8.1mph /  13.0km/h 10.3mph /  16.6km/h 87% 0in /  0.0mm
10:18 45.7 °F /  7.6 °C 41.5 °F /  5.3 °C 29.5in /  998.9hPa WSW 9.8mph /  15.8km/h 10.3mph /  16.6km/h 86% 0in /  0.0mm
10:23 45.9 °F /  7.7 °C 41.7 °F /  5.4 °C 29.5in /  998.9hPa WSW 6.5mph /  10.5km/h 9.8mph /  15.8km/h 86% 0in /  0.0mm
10:28 45.9 °F /  7.7 °C 42.3 °F /  5.7 °C 29.5in /  998.9hPa West 8.5mph /  13.7km/h 11mph /  17.7km/h 87% 0in /  0.0mm
10:33 46 °F /  7.8 °C 42.3 °F /  5.7 °C 29.5in /  998.9hPa WSW 6mph /  9.7km/h 11mph /  17.7km/h 86% 0in /  0.0mm
10:38 46 °F /  7.8 °C 42.3 °F /  5.7 °C 29.5in /  998.9hPa WSW 8.1mph /  13.0km/h 8.7mph /  14.0km/h 86% 0in /  0.0mm
10:43 46 °F /  7.8 °C 42.3 °F /  5.7 °C 29.5in /  998.9hPa WSW 8.7mph /  14.0km/h 9.8mph /  15.8km/h 86% 0in /  0.0mm
10:48 46 °F /  7.8 °C 42.3 °F /  5.7 °C 29.5in /  998.9hPa WSW 8.1mph /  13.0km/h 9.8mph /  15.8km/h 86% 0in /  0.0mm
10:53 46 °F /  7.8 °C 41.9 °F /  5.5 °C 29.5in /  998.9hPa WSW 3.8mph /  6.1km/h 9.8mph /  15.8km/h 85% 0in /  0.0mm
10:58 46.2 °F /  7.9 °C 42.1 °F /  5.6 °C 29.5in /  998.9hPa West 8.5mph /  13.7km/h 9.8mph /  15.8km/h 85% 0in /  0.0mm
11:03 46.2 °F /  7.9 °C 42.1 °F /  5.6 °C 29.5in /  998.9hPa WSW 8.5mph /  13.7km/h 9.4mph /  15.1km/h 85% 0in /  0.0mm
11:08 46.6 °F /  8.1 °C 42.3 °F /  5.7 °C 29.5in /  998.9hPa WSW 9.8mph /  15.8km/h 10.5mph /  16.9km/h 85% 0in /  0.0mm
11:13 46.8 °F /  8.2 °C 42.4 °F /  5.8 °C 29.5in /  998.9hPa WSW 7.6mph /  12.2km/h 10.5mph /  16.9km/h 85% 0in /  0.0mm
11:18 46.8 °F /  8.2 °C 42.3 °F /  5.7 °C 29.5in /  998.9hPa West 8.1mph /  13.0km/h 11mph /  17.7km/h 84% 0in /  0.0mm
11:23 46.9 °F /  8.3 °C 42.4 °F /  5.8 °C 29.5in /  998.9hPa WSW 8.1mph /  13.0km/h 11mph /  17.7km/h 84% 0in /  0.0mm
11:28 47.1 °F /  8.4 °C 42.3 °F /  5.7 °C 29.5in /  998.9hPa West 9.2mph /  14.8km/h 12.1mph /  19.5km/h 83% 0in /  0.0mm
11:33 47.3 °F /  8.5 °C 42.4 °F /  5.8 °C 29.5in /  998.9hPa West 7.6mph /  12.2km/h 12.1mph /  19.5km/h 83% 0in /  0.0mm
11:37 47.5 °F /  8.6 °C 42.3 °F /  5.7 °C 29.5in /  998.9hPa West 5.4mph /  8.7km/h 10.3mph /  16.6km/h 82% 0in /  0.0mm
11:43 47.8 °F /  8.8 °C 42.6 °F /  5.9 °C 29.5in /  998.9hPa WSW 6.3mph /  10.1km/h 10.3mph /  16.6km/h 82% 0in /  0.0mm
11:48 48.4 °F /  9.1 °C 42.8 °F /  6.0 °C 29.5in /  998.9hPa West 5.8mph /  9.3km/h 10.5mph /  16.9km/h 81% 0in /  0.0mm
11:53 48.4 °F /  9.1 °C 42.4 °F /  5.8 °C 29.5in /  998.9hPa West 2.9mph /  4.7km/h 10.5mph /  16.9km/h 80% 0in /  0.0mm
11:58 48.4 °F /  9.1 °C 42.3 °F /  5.7 °C 29.5in /  998.9hPa WNW 5.4mph /  8.7km/h 9.6mph /  15.4km/h 79% 0in /  0.0mm
12:03 48.2 °F /  9.0 °C 41.7 °F /  5.4 °C 29.5in /  998.9hPa West 6.3mph /  10.1km/h 10.1mph /  16.3km/h 78% 0in /  0.0mm
12:08 48 °F /  8.9 °C 41.5 °F /  5.3 °C 29.5in /  998.9hPa West 5.6mph /  9.0km/h 10.1mph /  16.3km/h 78% 0in /  0.0mm
12:13 48.2 °F /  9.0 °C 42.1 °F /  5.6 °C 29.5in /  998.9hPa NW 4.3mph /  6.9km/h 7.4mph /  11.9km/h 79% 0in /  0.0mm
12:18 48.9 °F /  9.4 °C 43 °F /  6.1 °C 29.5in /  998.9hPa WNW 5.8mph /  9.3km/h 8.5mph /  13.7km/h 80% 0in /  0.0mm
12:23 50.4 °F /  10.2 °C 44.8 °F /  7.1 °C 29.5in /  999.9hPa West 3.8mph /  6.1km/h 8.7mph /  14.0km/h 81% 0in /  0.0mm
12:28 50 °F /  10.0 °C 43.2 °F /  6.2 °C 29.5in /  999.9hPa WNW 2.9mph /  4.7km/h 8.7mph /  14.0km/h 77% 0in /  0.0mm
12:33 49.5 °F /  9.7 °C 41.9 °F /  5.5 °C 29.5in /  999.9hPa WNW 6.3mph /  10.1km/h 9.8mph /  15.8km/h 75% 0in /  0.0mm
12:38 49.5 °F /  9.7 °C 42.3 °F /  5.7 °C 29.6in /  1000.9hPa North 6.5mph /  10.5km/h 9.8mph /  15.8km/h 76% 0in /  0.0mm
12:43 50.9 °F /  10.5 °C 43.5 °F /  6.4 °C 29.6in /  1000.9hPa SSW 4.3mph /  6.9km/h 8.7mph /  14.0km/h 76% 0in /  0.0mm
12:48 50.4 °F /  10.2 °C 41.4 °F /  5.2 °C 29.6in /  1000.9hPa West 7.4mph /  11.9km/h 11mph /  17.7km/h 71% 0in /  0.0mm
12:53 50 °F /  10.0 °C 41.4 °F /  5.2 °C 29.6in /  1000.9hPa NE 2.9mph /  4.7km/h 11mph /  17.7km/h 72% 0in /  0.0mm
12:58 50.9 °F /  10.5 °C 42.3 °F /  5.7 °C 29.6in /  1000.9hPa West 0.9mph /  1.4km/h 7.6mph /  12.2km/h 72% 0in /  0.0mm
13:03 52.2 °F /  11.2 °C 44.1 °F /  6.7 °C 29.6in /  1000.9hPa NE 7.2mph /  11.6km/h 7.4mph /  11.9km/h 74% 0in /  0.0mm
13:08 52.5 °F /  11.4 °C 43.5 °F /  6.4 °C 29.6in /  1000.9hPa West 10.7mph /  17.2km/h 11.4mph /  18.3km/h 71% 0in /  0.0mm
13:13 52.3 °F /  11.3 °C 42.8 °F /  6.0 °C 29.6in /  1000.9hPa WNW 5.6mph /  9.0km/h 11.4mph /  18.3km/h 70% 0in /  0.0mm
13:18 51.8 °F /  11.0 °C 41.9 °F /  5.5 °C 29.6in /  1000.9hPa WSW 5.4mph /  8.7km/h 8.5mph /  13.7km/h 69% 0in /  0.0mm
13:23 52 °F /  11.1 °C 42.1 °F /  5.6 °C 29.6in /  1000.9hPa WNW 8.1mph /  13.0km/h 10.3mph /  16.6km/h 69% 0in /  0.0mm
13:28 51.4 °F /  10.8 °C 41.2 °F /  5.1 °C 29.6in /  1000.9hPa NW 5.4mph /  8.7km/h 10.5mph /  16.9km/h 68% 0in /  0.0mm
13:33 50.9 °F /  10.5 °C 40.3 °F /  4.6 °C 29.6in /  1000.9hPa NW 6.3mph /  10.1km/h 10.5mph /  16.9km/h 67% 0in /  0.0mm
13:38 50.5 °F /  10.3 °C 40.3 °F /  4.6 °C 29.6in /  1000.9hPa WNW 2.9mph /  4.7km/h 9.4mph /  15.1km/h 68% 0in /  0.0mm
13:43 50.7 °F /  10.4 °C 41.4 °F /  5.2 °C 29.6in /  1000.9hPa NW 0.9mph /  1.4km/h 9.4mph /  15.1km/h 70% 0in /  0.0mm
13:48 51.3 °F /  10.7 °C 41.7 °F /  5.4 °C 29.6in /  1000.9hPa North 6.3mph /  10.1km/h 7.8mph /  12.6km/h 70% 0in /  0.0mm
13:53 52.5 °F /  11.4 °C 42.6 °F /  5.9 °C 29.6in /  1000.9hPa NNW 6.3mph /  10.1km/h 10.1mph /  16.3km/h 69% 0in /  0.0mm
13:58 53.2 °F /  11.8 °C 42.6 °F /  5.9 °C 29.6in /  1000.9hPa NNW 6.5mph /  10.5km/h 11.2mph /  18.0km/h 67% 0in /  0.0mm
14:03 52.5 °F /  11.4 °C 41 °F /  5.0 °C 29.6in /  1000.9hPa North 6.7mph /  10.8km/h 12.3mph /  19.8km/h 65% 0in /  0.0mm
14:08 52.2 °F /  11.2 °C 40.3 °F /  4.6 °C 29.6in /  1000.9hPa North 0.9mph /  1.4km/h 12.3mph /  19.8km/h 64% 0in /  0.0mm
14:13 53.1 °F /  11.7 °C 41.9 °F /  5.5 °C 29.6in /  1000.9hPa West 1.3mph /  2.1km/h 11.4mph /  18.3km/h 66% 0in /  0.0mm
14:18 53.8 °F /  12.1 °C 41.7 °F /  5.4 °C 29.6in /  1000.9hPa WNW 7.8mph /  12.6km/h 10.7mph /  17.2km/h 64% 0in /  0.0mm
14:23 53.2 °F /  11.8 °C 41.2 °F /  5.1 °C 29.6in /  1000.9hPa NW 9.6mph /  15.4km/h 10.7mph /  17.2km/h 63% 0in /  0.0mm
14:28 52.2 °F /  11.2 °C 41.2 °F /  5.1 °C 29.6in /  1000.9hPa North 8.5mph /  13.7km/h 10.7mph /  17.2km/h 66% 0in /  0.0mm
14:33 51.6 °F /  10.9 °C 40.6 °F /  4.8 °C 29.6in /  1000.9hPa North 5.8mph /  9.3km/h 13mph /  20.9km/h 66% 0in /  0.0mm
14:38 51.1 °F /  10.6 °C 40.5 °F /  4.7 °C 29.6in /  1001.9hPa North 6mph /  9.7km/h 13mph /  20.9km/h 67% 0in /  0.0mm
14:43 50.2 °F /  10.1 °C 39.9 °F /  4.4 °C 29.6in /  1001.9hPa West 7.2mph /  11.6km/h 14.1mph /  22.7km/h 68% 0in /  0.0mm
14:45 50 °F /  10.0 °C 39.7 °F /  4.3 °C 29.6in /  1001.9hPa NNW 7.8mph /  12.6km/h 14.1mph /  22.7km/h 68% 0in /  0.0mm
14:50 49.8 °F /  9.9 °C 39.9 °F /  4.4 °C 29.6in /  1001.9hPa NNW 7.6mph /  12.2km/h 11.9mph /  19.1km/h 69% 0in /  0.0mm
14:55 49.8 °F /  9.9 °C 40.5 °F /  4.7 °C 29.6in /  1001.9hPa North 6mph /  9.7km/h 11mph /  17.7km/h 70% 0in /  0.0mm
15:00 49.3 °F /  9.6 °C 40.3 °F /  4.6 °C 29.6in /  1001.9hPa NNW 7.6mph /  12.2km/h 13mph /  20.9km/h 71% 0in /  0.0mm
15:05 48.9 °F /  9.4 °C 40.3 °F /  4.6 °C 29.6in /  1001.9hPa NNW 5.8mph /  9.3km/h 13mph /  20.9km/h 72% 0in /  0.0mm
15:10 48.6 °F /  9.2 °C 40.3 °F /  4.6 °C 29.6in /  1001.9hPa West 5.8mph /  9.3km/h 8.9mph /  14.3km/h 73% 0in /  0.0mm
15:15 48.2 °F /  9.0 °C 40.3 °F /  4.6 °C 29.6in /  1001.9hPa NNW 7.6mph /  12.2km/h 8.9mph /  14.3km/h 74% 0in /  0.0mm
15:20 48.6 °F /  9.2 °C 41 °F /  5.0 °C 29.6in /  1001.9hPa Calm   11mph /  17.7km/h 75% 0in /  0.0mm
15:25 48.4 °F /  9.1 °C 40.8 °F /  4.9 °C 29.6in /  1002.9hPa NNW 5.6mph /  9.0km/h 11mph /  17.7km/h 75% 0in /  0.0mm
15:30 48.4 °F /  9.1 °C 40.8 °F /  4.9 °C 29.6in /  1002.9hPa North 7.4mph /  11.9km/h 9.6mph /  15.4km/h 75% 0in /  0.0mm
15:35 49.6 °F /  9.8 °C 42.4 °F /  5.8 °C 29.6in /  1002.9hPa NW 6.3mph /  10.1km/h 10.5mph /  16.9km/h 76% 0in /  0.0mm
15:40 49.5 °F /  9.7 °C 41.9 °F /  5.5 °C 29.6in /  1002.9hPa North 3.6mph /  5.8km/h 10.5mph /  16.9km/h 75% 0in /  0.0mm
15:45 49.3 °F /  9.6 °C 41.7 °F /  5.4 °C 29.6in /  1002.9hPa WNW 4.7mph /  7.6km/h 10.5mph /  16.9km/h 75% 0in /  0.0mm
15:50 49.1 °F /  9.5 °C 41.5 °F /  5.3 °C 29.6in /  1002.9hPa North 3.4mph /  5.5km/h 9.6mph /  15.4km/h 75% 0in /  0.0mm
15:55 48.7 °F /  9.3 °C 40.8 °F /  4.9 °C 29.6in /  1002.9hPa North 3.1mph /  5.0km/h 10.3mph /  16.6km/h 74% 0in /  0.0mm
16:00 48.6 °F /  9.2 °C 40.6 °F /  4.8 °C 29.6in /  1002.9hPa NW 6.3mph /  10.1km/h 10.3mph /  16.6km/h 74% 0in /  0.0mm
16:05 48.6 °F /  9.2 °C 40.3 °F /  4.6 °C 29.6in /  1002.9hPa NW 7.6mph /  12.2km/h 10.1mph /  16.3km/h 73% 0in /  0.0mm
16:10 48.9 °F /  9.4 °C 40.6 °F /  4.8 °C 29.6in /  1002.9hPa NNW 5.4mph /  8.7km/h 10.1mph /  16.3km/h 73% 0in /  0.0mm
16:15 49.1 °F /  9.5 °C 40.8 °F /  4.9 °C 29.6in /  1002.9hPa NW 8.7mph /  14.0km/h 10.7mph /  17.2km/h 73% 0in /  0.0mm
16:20 48.9 °F /  9.4 °C 40.6 °F /  4.8 °C 29.6in /  1002.9hPa NNW 7.8mph /  12.6km/h 13mph /  20.9km/h 73% 0in /  0.0mm
16:25 48.6 °F /  9.2 °C 40.3 °F /  4.6 °C 29.6in /  1002.9hPa West 3.8mph /  6.1km/h 13mph /  20.9km/h 73% 0in /  0.0mm
16:30 49.1 °F /  9.5 °C 41.2 °F /  5.1 °C 29.6in /  1002.9hPa NW 4.9mph /  7.9km/h 8.7mph /  14.0km/h 74% 0in /  0.0mm
16:35 49.6 °F /  9.8 °C 41.4 °F /  5.2 °C 29.6in /  1002.9hPa NNW 0.9mph /  1.4km/h 9.6mph /  15.4km/h 73% 0in /  0.0mm
16:40 49.6 °F /  9.8 °C 41.4 °F /  5.2 °C 29.6in /  1003.9hPa WNW 4.9mph /  7.9km/h 10.1mph /  16.3km/h 73% 0in /  0.0mm
16:45 49.8 °F /  9.9 °C 41.2 °F /  5.1 °C 29.6in /  1003.9hPa Calm   10.1mph /  16.3km/h 72% 0in /  0.0mm
16:50 49.8 °F /  9.9 °C 41.2 °F /  5.1 °C 29.6in /  1003.9hPa North 3.1mph /  5.0km/h 9.6mph /  15.4km/h 72% 0in /  0.0mm
16:55 49.1 °F /  9.5 °C 40.1 °F /  4.5 °C 29.7in /  1005.0hPa NW 6.7mph /  10.8km/h 11.2mph /  18.0km/h 71% 0in /  0.0mm
17:00 48.6 °F /  9.2 °C 39.2 °F /  4.0 °C 29.7in /  1005.0hPa North 2.5mph /  4.0km/h 11.2mph /  18.0km/h 70% 0in /  0.0mm
17:01 48.6 °F /  9.2 °C 39.2 °F /  4.0 °C 29.7in /  1005.0hPa NNW 4.3mph /  6.9km/h 11.2mph /  18.0km/h 70% 0in /  0.0mm
17:06 48.7 °F /  9.3 °C 39.7 °F /  4.3 °C 29.7in /  1005.0hPa WNW 3.4mph /  5.5km/h 8.5mph /  13.7km/h 71% 0in /  0.0mm
17:11 48.7 °F /  9.3 °C 40.1 °F /  4.5 °C 29.7in /  1005.0hPa North 5.8mph /  9.3km/h 8.1mph /  13.0km/h 72% 0in /  0.0mm
17:16 48.9 °F /  9.4 °C 40.3 °F /  4.6 °C 29.7in /  1005.0hPa North 3.4mph /  5.5km/h 11mph /  17.7km/h 72% 0in /  0.0mm
17:21 49.1 °F /  9.5 °C 40.1 °F /  4.5 °C 29.7in /  1005.0hPa North 3.6mph /  5.8km/h 11mph /  17.7km/h 71% 0in /  0.0mm
17:26 48.7 °F /  9.3 °C 39.7 °F /  4.3 °C 29.7in /  1005.0hPa NNW 2.7mph /  4.3km/h 11mph /  17.7km/h 71% 0in /  0.0mm
17:31 48.4 °F /  9.1 °C 39.7 °F /  4.3 °C 29.7in /  1005.0hPa Calm   6.5mph /  10.5km/h 72% 0in /  0.0mm
17:36 48.2 °F /  9.0 °C 39.6 °F /  4.2 °C 29.7in /  1005.0hPa North 4.9mph /  7.9km/h 6.7mph /  10.8km/h 72% 0in /  0.0mm
17:41 48.2 °F /  9.0 °C 39.6 °F /  4.2 °C 29.7in /  1005.0hPa West 3.4mph /  5.5km/h 7.2mph /  11.6km/h 72% 0in /  0.0mm
17:46 48 °F /  8.9 °C 39.7 °F /  4.3 °C 29.7in /  1005.0hPa WNW 1.6mph /  2.6km/h 7.2mph /  11.6km/h 73% 0in /  0.0mm
17:51 47.8 °F /  8.8 °C 39.6 °F /  4.2 °C 29.7in /  1005.0hPa West 3.4mph /  5.5km/h 10.3mph /  16.6km/h 73% 0in /  0.0mm
17:56 47.8 °F /  8.8 °C 39.9 °F /  4.4 °C 29.7in /  1005.0hPa West 7.8mph /  12.6km/h 13mph /  20.9km/h 74% 0in /  0.0mm
18:01 47.7 °F /  8.7 °C 39.6 °F /  4.2 °C 29.7in /  1005.0hPa WSW 7.6mph /  12.2km/h 13mph /  20.9km/h 73% 0in /  0.0mm
18:06 47.1 °F /  8.4 °C 39 °F /  3.9 °C 29.7in /  1005.0hPa West 6mph /  9.7km/h 10.7mph /  17.2km/h 73% 0in /  0.0mm
18:11 46.9 °F /  8.3 °C 38.8 °F /  3.8 °C 29.7in /  1006.0hPa West 9.6mph /  15.4km/h 10.5mph /  16.9km/h 73% 0in /  0.0mm
18:16 46.8 °F /  8.2 °C 38.7 °F /  3.7 °C 29.7in /  1006.0hPa WSW 4mph /  6.4km/h 10.5mph /  16.9km/h 73% 0in /  0.0mm
18:21 46.6 °F /  8.1 °C 38.5 °F /  3.6 °C 29.7in /  1006.0hPa WNW 4mph /  6.4km/h 8.7mph /  14.0km/h 73% 0in /  0.0mm
18:26 46.6 °F /  8.1 °C 38.3 °F /  3.5 °C 29.7in /  1006.0hPa WNW 2.9mph /  4.7km/h 8.7mph /  14.0km/h 73% 0in /  0.0mm
18:31 46 °F /  7.8 °C 37.9 °F /  3.3 °C 29.7in /  1006.0hPa West 2.2mph /  3.5km/h 6.3mph /  10.1km/h 73% 0in /  0.0mm
18:36 46 °F /  7.8 °C 38.3 °F /  3.5 °C 29.7in /  1006.0hPa NNW 3.1mph /  5.0km/h 6.3mph /  10.1km/h 74% 0in /  0.0mm
18:41 46 °F /  7.8 °C 38.3 °F /  3.5 °C 29.7in /  1006.0hPa WNW 4.9mph /  7.9km/h 6.3mph /  10.1km/h 74% 0in /  0.0mm
18:46 45.9 °F /  7.7 °C 38.5 °F /  3.6 °C 29.7in /  1006.0hPa West 5.4mph /  8.7km/h 6.9mph /  11.1km/h 75% 0in /  0.0mm
18:51 45.9 °F /  7.7 °C 38.8 °F /  3.8 °C 29.7in /  1006.0hPa Calm   8.1mph /  13.0km/h 76% 0in /  0.0mm
18:56 45.9 °F /  7.7 °C 39 °F /  3.9 °C 29.7in /  1007.0hPa WNW 4.3mph /  6.9km/h 8.1mph /  13.0km/h 77% 0in /  0.0mm
19:01 45.7 °F /  7.6 °C 39 °F /  3.9 °C 29.7in /  1007.0hPa NW 3.6mph /  5.8km/h 6.5mph /  10.5km/h 78% 0in /  0.0mm
19:06 45.7 °F /  7.6 °C 39.4 °F /  4.1 °C 29.7in /  1007.0hPa West 4.7mph /  7.6km/h 8.7mph /  14.0km/h 79% 0in /  0.0mm
19:11 45.3 °F /  7.4 °C 39.6 °F /  4.2 °C 29.7in /  1007.0hPa West 4.9mph /  7.9km/h 8.7mph /  14.0km/h 80% 0in /  0.0mm
19:16 45.1 °F /  7.3 °C 39.7 °F /  4.3 °C 29.7in /  1007.0hPa West 3.8mph /  6.1km/h 7.4mph /  11.9km/h 81% 0in /  0.0mm
19:21 45.1 °F /  7.3 °C 39.9 °F /  4.4 °C 29.7in /  1007.0hPa WSW 2.9mph /  4.7km/h 6.9mph /  11.1km/h 82% 0in /  0.0mm
19:26 45 °F /  7.2 °C 39.9 °F /  4.4 °C 29.7in /  1007.0hPa West 2mph /  3.2km/h 6.5mph /  10.5km/h 83% 0in /  0.0mm
19:31 45 °F /  7.2 °C 39.9 °F /  4.4 °C 29.7in /  1007.0hPa Calm   6.3mph /  10.1km/h 83% 0in /  0.0mm
19:36 44.4 °F /  6.9 °C 39.7 °F /  4.3 °C 29.7in /  1007.0hPa West 2mph /  3.2km/h 5.6mph /  9.0km/h 83% 0in /  0.0mm
19:41 44.4 °F /  6.9 °C 39.9 °F /  4.4 °C 29.7in /  1006.0hPa West 3.6mph /  5.8km/h 5.6mph /  9.0km/h 84% 0in /  0.0mm
19:46 44.2 °F /  6.8 °C 40.1 °F /  4.5 °C 29.7in /  1006.0hPa Calm   4.9mph /  7.9km/h 85% 0in /  0.0mm
19:51 44.2 °F /  6.8 °C 40.1 °F /  4.5 °C 29.7in /  1006.0hPa West 2.9mph /  4.7km/h 4.9mph /  7.9km/h 85% 0in /  0.0mm
19:56 44.2 °F /  6.8 °C 40.3 °F /  4.6 °C 29.7in /  1007.0hPa Calm   4.9mph /  7.9km/h 86% 0in /  0.0mm
20:01 44.2 °F /  6.8 °C 40.3 °F /  4.6 °C 29.7in /  1007.0hPa Calm   4.7mph /  7.6km/h 86% 0in /  0.0mm
20:06 44.1 °F /  6.7 °C 40.5 °F /  4.7 °C 29.7in /  1007.0hPa Calm   4.3mph /  6.9km/h 87% 0in /  0.0mm
20:11 44.1 °F /  6.7 °C 40.5 °F /  4.7 °C 29.7in /  1007.0hPa Calm   5.6mph /  9.0km/h 87% 0in /  0.0mm
20:16 44.1 °F /  6.7 °C 40.5 °F /  4.7 °C 29.7in /  1007.0hPa Calm   5.6mph /  9.0km/h 87% 0in /  0.0mm
20:21 44.1 °F /  6.7 °C 40.5 °F /  4.7 °C 29.7in /  1007.0hPa Calm   3.6mph /  5.8km/h 87% 0in /  0.0mm
20:26 44.1 °F /  6.7 °C 40.6 °F /  4.8 °C 29.8in /  1008.0hPa WSW 4mph /  6.4km/h 4mph /  6.4km/h 88% 0in /  0.0mm
20:31 44.2 °F /  6.8 °C 40.8 °F /  4.9 °C 29.8in /  1008.0hPa West 2.5mph /  4.0km/h 4mph /  6.4km/h 88% 0in /  0.0mm
20:36 44.2 °F /  6.8 °C 40.8 °F /  4.9 °C 29.8in /  1008.0hPa Calm   4.3mph /  6.9km/h 88% 0in /  0.0mm
20:41 44.2 °F /  6.8 °C 40.8 °F /  4.9 °C 29.8in /  1008.0hPa Calm   4.3mph /  6.9km/h 88% 0in /  0.0mm
20:46 44.2 °F /  6.8 °C 41 °F /  5.0 °C 29.8in /  1008.0hPa West 0.9mph /  1.4km/h 4.3mph /  6.9km/h 88% 0in /  0.0mm
20:51 44.4 °F /  6.9 °C 41.5 °F /  5.3 °C 29.8in /  1008.0hPa North 0.9mph /  1.4km/h 6mph /  9.7km/h 89% 0in /  0.0mm
20:56 45 °F /  7.2 °C 42.1 °F /  5.6 °C 29.8in /  1009.0hPa WNW 3.1mph /  5.0km/h 8.7mph /  14.0km/h 90% 0.01in /  0.3mm
21:01 45 °F /  7.2 °C 41.7 °F /  5.4 °C 29.8in /  1009.0hPa WNW 7.2mph /  11.6km/h 8.7mph /  14.0km/h 89% 0.01in /  0.3mm
21:06 45 °F /  7.2 °C 41.7 °F /  5.4 °C 29.8in /  1009.0hPa West 3.8mph /  6.1km/h 7.2mph /  11.6km/h 89% 0.01in /  0.3mm
21:11 45 °F /  7.2 °C 41.7 °F /  5.4 °C 29.8in /  1009.0hPa WSW 1.1mph /  1.8km/h 7.2mph /  11.6km/h 89% 0.01in /  0.3mm
21:16 45 °F /  7.2 °C 41.7 °F /  5.4 °C 29.8in /  1009.0hPa Calm   4.7mph /  7.6km/h 89% 0.01in /  0.3mm
21:21 45 °F /  7.2 °C 41.7 °F /  5.4 °C 29.8in /  1009.0hPa Calm   5.6mph /  9.0km/h 89% 0.01in /  0.3mm
21:26 44.8 °F /  7.1 °C 41.7 °F /  5.4 °C 29.8in /  1009.0hPa Calm   5.6mph /  9.0km/h 89% 0.01in /  0.3mm
21:31 44.4 °F /  6.9 °C 41.5 °F /  5.3 °C 29.8in /  1009.0hPa Calm   4mph /  6.4km/h 89% 0.01in /  0.3mm
21:36 44.4 °F /  6.9 °C 41.5 °F /  5.3 °C 29.8in /  1009.0hPa North 4.9mph /  7.9km/h 5.8mph /  9.3km/h 89% 0.01in /  0.3mm
21:41 44.2 °F /  6.8 °C 41.4 °F /  5.2 °C 29.8in /  1009.0hPa West 2.5mph /  4.0km/h 5.8mph /  9.3km/h 89% 0.01in /  0.3mm
21:46 44.2 °F /  6.8 °C 41.4 °F /  5.2 °C 29.8in /  1009.0hPa West 3.1mph /  5.0km/h 4.9mph /  7.9km/h 89% 0.01in /  0.3mm
21:51 44.2 °F /  6.8 °C 41.2 °F /  5.1 °C 29.8in /  1009.0hPa West 2mph /  3.2km/h 4.3mph /  6.9km/h 89% 0.01in /  0.3mm
21:57 44.1 °F /  6.7 °C 41 °F /  5.0 °C 29.8in /  1009.0hPa Calm   4.3mph /  6.9km/h 89% 0in /  0.0mm
22:02 43.5 °F /  6.4 °C 40.3 °F /  4.6 °C 29.8in /  1009.0hPa Calm   4.3mph /  6.9km/h 88% 0in /  0.0mm
22:07 43.5 °F /  6.4 °C 40.1 °F /  4.5 °C 29.8in /  1009.0hPa Calm     88% 0in /  0.0mm
22:12 43.3 °F /  6.3 °C 40.3 °F /  4.6 °C 29.8in /  1008.0hPa WSW 2.9mph /  4.7km/h 2.9mph /  4.7km/h 89% 0in /  0.0mm
22:17 43.2 °F /  6.2 °C 40.1 °F /  4.5 °C 29.8in /  1008.0hPa WSW 4.3mph /  6.9km/h 4.7mph /  7.6km/h 89% 0in /  0.0mm
22:22 43.2 °F /  6.2 °C 40.1 °F /  4.5 °C 29.8in /  1008.0hPa Calm   4.7mph /  7.6km/h 89% 0in /  0.0mm
22:27 43.2 °F /  6.2 °C 40.5 °F /  4.7 °C 29.8in /  1009.0hPa West 1.3mph /  2.1km/h 3.8mph /  6.1km/h 90% 0in /  0.0mm
22:32 43.3 °F /  6.3 °C 40.6 °F /  4.8 °C 29.8in /  1009.0hPa West 4.3mph /  6.9km/h 6mph /  9.7km/h 90% 0in /  0.0mm
22:37 43.3 °F /  6.3 °C 40.8 °F /  4.9 °C 29.8in /  1009.0hPa Calm   6mph /  9.7km/h 91% 0in /  0.0mm
22:42 43.3 °F /  6.3 °C 40.8 °F /  4.9 °C 29.8in /  1009.0hPa Calm   4.5mph /  7.2km/h 91% 0in /  0.0mm
22:44 43.3 °F /  6.3 °C 40.8 °F /  4.9 °C 29.8in /  1009.0hPa Calm   3.8mph /  6.1km/h 91% 0in /  0.0mm
22:49 43.3 °F /  6.3 °C 40.8 °F /  4.9 °C 29.8in /  1009.0hPa West 2.2mph /  3.5km/h 3.8mph /  6.1km/h 91% 0in /  0.0mm
22:54 43.5 °F /  6.4 °C 41.4 °F /  5.2 °C 29.8in /  1009.0hPa WNW 2mph /  3.2km/h 3.8mph /  6.1km/h 92% 0in /  0.0mm
22:59 43.5 °F /  6.4 °C 41.5 °F /  5.3 °C 29.8in /  1009.0hPa North 2mph /  3.2km/h 4.7mph /  7.6km/h 92% 0in /  0.0mm
23:05 43.9 °F /  6.6 °C 41.4 °F /  5.2 °C 29.8in /  1009.0hPa Calm   4.7mph /  7.6km/h 91% 0in /  0.0mm
23:10 44.1 °F /  6.7 °C 41.5 °F /  5.3 °C 29.8in /  1009.0hPa Calm   2.5mph /  4.0km/h 91% 0in /  0.0mm
23:15 44.1 °F /  6.7 °C 41.4 °F /  5.2 °C 29.8in /  1009.0hPa Calm   1.3mph /  2.1km/h 90% 0in /  0.0mm
23:20 44.1 °F /  6.7 °C 41.4 °F /  5.2 °C 29.8in /  1009.0hPa Calm   2.7mph /  4.3km/h 90% 0in /  0.0mm
23:25 44.1 °F /  6.7 °C 41.4 °F /  5.2 °C 29.8in /  1009.0hPa Calm   2.7mph /  4.3km/h 90% 0in /  0.0mm
23:30 44.1 °F /  6.7 °C 41.4 °F /  5.2 °C 29.8in /  1009.0hPa Calm   1.6mph /  2.6km/h 90% 0in /  0.0mm
23:35 43.9 °F /  6.6 °C 40.8 °F /  4.9 °C 29.8in /  1009.0hPa Calm   1.6mph /  2.6km/h 89% 0in /  0.0mm
23:40 43.9 °F /  6.6 °C 40.8 °F /  4.9 °C 29.8in /  1010.0hPa Calm     89% 0in /  0.0mm
23:45 43.5 °F /  6.4 °C 40.8 °F /  4.9 °C 29.8in /  1010.0hPa Calm     90% 0in /  0.0mm
23:50 43.5 °F /  6.4 °C 40.6 °F /  4.8 °C 29.8in /  1010.0hPa Calm     90% 0in /  0.0mm
23:55 43.5 °F /  6.4 °C 40.6 °F /  4.8 °C 29.8in /  1010.0hPa Calm     90% 0in /  0.0mm
Données Historique de Météo Turbie

Mise a jour : 22/05/2018 04:12:13
Généré par Cumulus 1.9.4 (1099)